Terminal Aerodrome Forecast
Issued by NWS Indianapolis, IN

Home | Current Version | Previous Version | Text Only | Print | Product List | Glossary On
Versions: 1 2 3 4 5 6 7 8 9 10 11 12 13 14 15 16 17 18 19 20 21 22 23 24 25 26 27
000
FTUS43 KIND 260800 AAA
TAFIND
TAF AMD
KIND 260807Z 2608/2712 15009KT P6SM BKN008 OVC010
     FM260900 19008KT 4SM BR OVC015
     FM261500 19012G20KT P6SM BKN025
     FM261900 19013G28KT P6SM VCTS BKN035CB
     FM270200 21010KT P6SM BKN025=

USA.gov is the U.S. government's official web portal to all federal, state and local government web resources and services.